sensor_id;sensor_type;location;lat;lon;timestamp;P1;durP1;ratioP1;P2;durP2;ratioP2
2896;SDS011;1458;49.728;9.228;2023-03-25T00:00:19;0.20;;;0.20;;
2896;SDS011;1458;49.728;9.228;2023-03-25T00:02:48;0.20;;;0.20;;
2896;SDS011;1458;49.728;9.228;2023-03-25T00:05:18;0.23;;;0.23;;
2896;SDS011;1458;49.728;9.228;2023-03-25T00:07:49;0.20;;;0.20;;
2896;SDS011;1458;49.728;9.228;2023-03-25T00:10:18;0.30;;;0.30;;
2896;SDS011;1458;49.728;9.228;2023-03-25T00:12:46;0.30;;;0.30;;
2896;SDS011;1458;49.728;9.228;2023-03-25T00:15:14;0.27;;;0.27;;
2896;SDS011;1458;49.728;9.228;2023-03-25T00:17:42;0.20;;;0.20;;
2896;SDS011;1458;49.728;9.228;2023-03-25T00:20:09;0.23;;;0.23;;
2896;SDS011;1458;49.728;9.228;2023-03-25T00:22:41;0.20;;;0.20;;
2896;SDS011;1458;49.728;9.228;2023-03-25T00:25:09;0.20;;;0.20;;
2896;SDS011;1458;49.728;9.228;2023-03-25T00:27:43;0.20;;;0.20;;
2896;SDS011;1458;49.728;9.228;2023-03-25T00:30:12;0.20;;;0.20;;
2896;SDS011;1458;49.728;9.228;2023-03-25T00:32:41;0.30;;;0.30;;
2896;SDS011;1458;49.728;9.228;2023-03-25T00:35:10;0.23;;;0.23;;
2896;SDS011;1458;49.728;9.228;2023-03-25T00:37:43;0.30;;;0.30;;
2896;SDS011;1458;49.728;9.228;2023-03-25T00:40:12;0.23;;;0.23;;
2896;SDS011;1458;49.728;9.228;2023-03-25T00:42:40;0.30;;;0.30;;
2896;SDS011;1458;49.728;9.228;2023-03-25T00:45:09;0.30;;;0.30;;
2896;SDS011;1458;49.728;9.228;2023-03-25T00:47:37;0.30;;;0.30;;
2896;SDS011;1458;49.728;9.228;2023-03-25T00:50:06;0.40;;;0.40;;
2896;SDS011;1458;49.728;9.228;2023-03-25T00:52:35;0.30;;;0.30;;
2896;SDS011;1458;49.728;9.228;2023-03-25T00:55:05;0.30;;;0.30;;
2896;SDS011;1458;49.728;9.228;2023-03-25T00:57:33;0.30;;;0.30;;
2896;SDS011;1458;49.728;9.228;2023-03-25T01:00:01;0.30;;;0.30;;
2896;SDS011;1458;49.728;9.228;2023-03-25T01:02:32;0.40;;;0.40;;
2896;SDS011;1458;49.728;9.228;2023-03-25T01:04:59;0.30;;;0.30;;
2896;SDS011;1458;49.728;9.228;2023-03-25T01:07:28;0.30;;;0.30;;
2896;SDS011;1458;49.728;9.228;2023-03-25T01:09:56;0.50;;;0.50;;
2896;SDS011;1458;49.728;9.228;2023-03-25T01:12:25;0.40;;;0.40;;
2896;SDS011;1458;49.728;9.228;2023-03-25T01:14:53;0.40;;;0.40;;
2896;SDS011;1458;49.728;9.228;2023-03-25T01:17:21;0.43;;;0.43;;
2896;SDS011;1458;49.728;9.228;2023-03-25T01:19:48;0.30;;;0.30;;
2896;SDS011;1458;49.728;9.228;2023-03-25T01:22:16;0.40;;;0.40;;
2896;SDS011;1458;49.728;9.228;2023-03-25T01:24:44;0.30;;;0.30;;
2896;SDS011;1458;49.728;9.228;2023-03-25T01:27:12;0.40;;;0.40;;
2896;SDS011;1458;49.728;9.228;2023-03-25T01:29:41;0.37;;;0.37;;
2896;SDS011;1458;49.728;9.228;2023-03-25T01:32:08;0.40;;;0.40;;
2896;SDS011;1458;49.728;9.228;2023-03-25T01:34:36;0.30;;;0.30;;
2896;SDS011;1458;49.728;9.228;2023-03-25T01:37:03;0.40;;;0.40;;
2896;SDS011;1458;49.728;9.228;2023-03-25T01:39:32;0.30;;;0.30;;
2896;SDS011;1458;49.728;9.228;2023-03-25T01:41:59;0.30;;;0.30;;
2896;SDS011;1458;49.728;9.228;2023-03-25T01:47:44;0.30;;;0.30;;
2896;SDS011;1458;49.728;9.228;2023-03-25T01:50:15;0.30;;;0.30;;
2896;SDS011;1458;49.728;9.228;2023-03-25T01:52:44;0.30;;;0.30;;
2896;SDS011;1458;49.728;9.228;2023-03-25T01:55:16;0.33;;;0.33;;
2896;SDS011;1458;49.728;9.228;2023-03-25T01:57:48;0.30;;;0.30;;
2896;SDS011;1458;49.728;9.228;2023-03-25T02:00:21;0.40;;;0.40;;
2896;SDS011;1458;49.728;9.228;2023-03-25T02:02:50;0.40;;;0.40;;
2896;SDS011;1458;49.728;9.228;2023-03-25T02:05:25;0.30;;;0.30;;
2896;SDS011;1458;49.728;9.228;2023-03-25T02:08:03;0.30;;;0.30;;
2896;SDS011;1458;49.728;9.228;2023-03-25T02:10:34;0.30;;;0.30;;
2896;SDS011;1458;49.728;9.228;2023-03-25T02:13:03;0.40;;;0.40;;
2896;SDS011;1458;49.728;9.228;2023-03-25T02:15:36;0.30;;;0.30;;
2896;SDS011;1458;49.728;9.228;2023-03-25T02:18:19;0.40;;;0.40;;
2896;SDS011;1458;49.728;9.228;2023-03-25T02:27:46;0.37;;;0.37;;
2896;SDS011;1458;49.728;9.228;2023-03-25T02:30:29;0.40;;;0.40;;
2896;SDS011;1458;49.728;9.228;2023-03-25T02:39:44;0.30;;;0.30;;
2896;SDS011;1458;49.728;9.228;2023-03-25T02:42:19;0.50;;;0.50;;
2896;SDS011;1458;49.728;9.228;2023-03-25T02:44:53;0.30;;;0.30;;
2896;SDS011;1458;49.728;9.228;2023-03-25T02:47:26;0.37;;;0.37;;
2896;SDS011;1458;49.728;9.228;2023-03-25T02:50:02;0.40;;;0.40;;
2896;SDS011;1458;49.728;9.228;2023-03-25T02:52:36;0.30;;;0.30;;
2896;SDS011;1458;49.728;9.228;2023-03-25T02:55:10;0.30;;;0.30;;
2896;SDS011;1458;49.728;9.228;2023-03-25T02:57:41;0.30;;;0.30;;
2896;SDS011;1458;49.728;9.228;2023-03-25T03:00:12;0.30;;;0.30;;
2896;SDS011;1458;49.728;9.228;2023-03-25T03:02:45;0.30;;;0.30;;
2896;SDS011;1458;49.728;9.228;2023-03-25T03:05:24;0.30;;;0.30;;
2896;SDS011;1458;49.728;9.228;2023-03-25T03:07:57;0.40;;;0.40;;
2896;SDS011;1458;49.728;9.228;2023-03-25T03:10:41;0.30;;;0.30;;
2896;SDS011;1458;49.728;9.228;2023-03-25T03:13:18;0.30;;;0.30;;
2896;SDS011;1458;49.728;9.228;2023-03-25T03:15:56;0.30;;;0.30;;
2896;SDS011;1458;49.728;9.228;2023-03-25T03:18:37;0.37;;;0.37;;
2896;SDS011;1458;49.728;9.228;2023-03-25T03:21:15;0.33;;;0.33;;
2896;SDS011;1458;49.728;9.228;2023-03-25T03:23:53;0.30;;;0.30;;
2896;SDS011;1458;49.728;9.228;2023-03-25T03:26:32;0.30;;;0.30;;
2896;SDS011;1458;49.728;9.228;2023-03-25T03:29:07;0.40;;;0.40;;
2896;SDS011;1458;49.728;9.228;2023-03-25T03:31:40;0.40;;;0.40;;
2896;SDS011;1458;49.728;9.228;2023-03-25T03:34:12;0.30;;;0.30;;
2896;SDS011;1458;49.728;9.228;2023-03-25T03:36:46;0.30;;;0.30;;
2896;SDS011;1458;49.728;9.228;2023-03-25T03:39:16;0.30;;;0.30;;
2896;SDS011;1458;49.728;9.228;2023-03-25T03:41:51;0.30;;;0.30;;
2896;SDS011;1458;49.728;9.228;2023-03-25T03:44:23;0.40;;;0.40;;
2896;SDS011;1458;49.728;9.228;2023-03-25T03:46:56;0.30;;;0.30;;
2896;SDS011;1458;49.728;9.228;2023-03-25T03:49:31;0.30;;;0.30;;
2896;SDS011;1458;49.728;9.228;2023-03-25T03:52:05;0.30;;;0.30;;
2896;SDS011;1458;49.728;9.228;2023-03-25T03:54:37;0.33;;;0.33;;
2896;SDS011;1458;49.728;9.228;2023-03-25T03:57:12;0.30;;;0.30;;
2896;SDS011;1458;49.728;9.228;2023-03-25T03:59:46;0.30;;;0.30;;
2896;SDS011;1458;49.728;9.228;2023-03-25T04:02:22;0.40;;;0.40;;
2896;SDS011;1458;49.728;9.228;2023-03-25T04:04:54;0.30;;;0.30;;
2896;SDS011;1458;49.728;9.228;2023-03-25T04:07:26;0.40;;;0.40;;
2896;SDS011;1458;49.728;9.228;2023-03-25T04:10:04;0.40;;;0.40;;
2896;SDS011;1458;49.728;9.228;2023-03-25T04:12:41;0.30;;;0.30;;
2896;SDS011;1458;49.728;9.228;2023-03-25T04:15:13;0.30;;;0.30;;
2896;SDS011;1458;49.728;9.228;2023-03-25T04:17:41;0.40;;;0.40;;
2896;SDS011;1458;49.728;9.228;2023-03-25T04:20:09;0.40;;;0.40;;
2896;SDS011;1458;49.728;9.228;2023-03-25T04:22:41;0.30;;;0.30;;
2896;SDS011;1458;49.728;9.228;2023-03-25T04:25:10;0.40;;;0.40;;
2896;SDS011;1458;49.728;9.228;2023-03-25T04:27:40;0.40;;;0.40;;
2896;SDS011;1458;49.728;9.228;2023-03-25T04:30:13;0.30;;;0.30;;
2896;SDS011;1458;49.728;9.228;2023-03-25T04:32:43;0.40;;;0.40;;
2896;SDS011;1458;49.728;9.228;2023-03-25T04:35:11;0.40;;;0.40;;
2896;SDS011;1458;49.728;9.228;2023-03-25T04:37:41;0.40;;;0.40;;
2896;SDS011;1458;49.728;9.228;2023-03-25T04:40:10;0.50;;;0.50;;
2896;SDS011;1458;49.728;9.228;2023-03-25T04:42:42;0.40;;;0.40;;
2896;SDS011;1458;49.728;9.228;2023-03-25T04:45:10;0.40;;;0.40;;
2896;SDS011;1458;49.728;9.228;2023-03-25T04:47:41;0.40;;;0.40;;
2896;SDS011;1458;49.728;9.228;2023-03-25T04:50:15;0.40;;;0.40;;
2896;SDS011;1458;49.728;9.228;2023-03-25T04:52:47;0.40;;;0.40;;
2896;SDS011;1458;49.728;9.228;2023-03-25T04:55:15;0.40;;;0.40;;
2896;SDS011;1458;49.728;9.228;2023-03-25T04:57:45;0.40;;;0.40;;
2896;SDS011;1458;49.728;9.228;2023-03-25T05:00:14;0.40;;;0.40;;
2896;SDS011;1458;49.728;9.228;2023-03-25T05:02:45;0.50;;;0.50;;
2896;SDS011;1458;49.728;9.228;2023-03-25T05:05:14;0.40;;;0.40;;
2896;SDS011;1458;49.728;9.228;2023-03-25T05:07:44;0.40;;;0.40;;
2896;SDS011;1458;49.728;9.228;2023-03-25T05:10:14;0.40;;;0.40;;
2896;SDS011;1458;49.728;9.228;2023-03-25T05:12:42;0.40;;;0.40;;
2896;SDS011;1458;49.728;9.228;2023-03-25T05:15:11;0.40;;;0.40;;
2896;SDS011;1458;49.728;9.228;2023-03-25T05:17:39;0.50;;;0.50;;
2896;SDS011;1458;49.728;9.228;2023-03-25T05:20:08;0.40;;;0.40;;
2896;SDS011;1458;49.728;9.228;2023-03-25T05:22:38;0.40;;;0.40;;
2896;SDS011;1458;49.728;9.228;2023-03-25T05:25:06;0.40;;;0.40;;
2896;SDS011;1458;49.728;9.228;2023-03-25T05:27:36;0.40;;;0.40;;
2896;SDS011;1458;49.728;9.228;2023-03-25T05:30:06;0.40;;;0.40;;
2896;SDS011;1458;49.728;9.228;2023-03-25T05:32:35;0.50;;;0.50;;
2896;SDS011;1458;49.728;9.228;2023-03-25T05:35:05;0.40;;;0.40;;
2896;SDS011;1458;49.728;9.228;2023-03-25T05:37:34;0.40;;;0.40;;
2896;SDS011;1458;49.728;9.228;2023-03-25T05:40:03;0.40;;;0.40;;
2896;SDS011;1458;49.728;9.228;2023-03-25T05:42:34;0.50;;;0.50;;
2896;SDS011;1458;49.728;9.228;2023-03-25T05:45:02;0.40;;;0.40;;
2896;SDS011;1458;49.728;9.228;2023-03-25T05:47:31;0.40;;;0.40;;
2896;SDS011;1458;49.728;9.228;2023-03-25T05:49:59;0.40;;;0.40;;
2896;SDS011;1458;49.728;9.228;2023-03-25T05:52:26;0.40;;;0.40;;
2896;SDS011;1458;49.728;9.228;2023-03-25T05:54:54;0.40;;;0.40;;
2896;SDS011;1458;49.728;9.228;2023-03-25T05:57:21;0.30;;;0.30;;
2896;SDS011;1458;49.728;9.228;2023-03-25T05:59:49;0.40;;;0.40;;
2896;SDS011;1458;49.728;9.228;2023-03-25T06:02:16;0.50;;;0.50;;
2896;SDS011;1458;49.728;9.228;2023-03-25T06:04:46;0.40;;;0.40;;
2896;SDS011;1458;49.728;9.228;2023-03-25T06:07:15;0.40;;;0.40;;
2896;SDS011;1458;49.728;9.228;2023-03-25T06:09:45;0.40;;;0.40;;
2896;SDS011;1458;49.728;9.228;2023-03-25T06:12:13;0.40;;;0.40;;
2896;SDS011;1458;49.728;9.228;2023-03-25T06:14:44;0.30;;;0.30;;
2896;SDS011;1458;49.728;9.228;2023-03-25T06:17:13;0.30;;;0.30;;
2896;SDS011;1458;49.728;9.228;2023-03-25T06:19:43;0.30;;;0.30;;
2896;SDS011;1458;49.728;9.228;2023-03-25T06:22:12;0.40;;;0.40;;
2896;SDS011;1458;49.728;9.228;2023-03-25T06:24:41;0.30;;;0.30;;
2896;SDS011;1458;49.728;9.228;2023-03-25T06:27:11;0.30;;;0.30;;
2896;SDS011;1458;49.728;9.228;2023-03-25T06:29:41;0.33;;;0.33;;
2896;SDS011;1458;49.728;9.228;2023-03-25T06:32:10;0.30;;;0.30;;
2896;SDS011;1458;49.728;9.228;2023-03-25T06:34:40;0.30;;;0.30;;
2896;SDS011;1458;49.728;9.228;2023-03-25T06:37:10;0.33;;;0.33;;
2896;SDS011;1458;49.728;9.228;2023-03-25T06:39:37;0.40;;;0.40;;
2896;SDS011;1458;49.728;9.228;2023-03-25T06:42:15;0.40;;;0.40;;
2896;SDS011;1458;49.728;9.228;2023-03-25T06:45:08;0.40;;;0.40;;
2896;SDS011;1458;49.728;9.228;2023-03-25T06:47:43;0.40;;;0.40;;
2896;SDS011;1458;49.728;9.228;2023-03-25T06:50:10;0.40;;;0.40;;
2896;SDS011;1458;49.728;9.228;2023-03-25T06:52:39;0.50;;;0.50;;
2896;SDS011;1458;49.728;9.228;2023-03-25T06:55:07;0.40;;;0.40;;
2896;SDS011;1458;49.728;9.228;2023-03-25T06:57:35;0.40;;;0.40;;
2896;SDS011;1458;49.728;9.228;2023-03-25T07:00:03;0.30;;;0.30;;
2896;SDS011;1458;49.728;9.228;2023-03-25T07:02:32;0.40;;;0.40;;
2896;SDS011;1458;49.728;9.228;2023-03-25T07:04:59;0.40;;;0.40;;
2896;SDS011;1458;49.728;9.228;2023-03-25T07:07:27;0.40;;;0.40;;
2896;SDS011;1458;49.728;9.228;2023-03-25T07:09:56;0.40;;;0.40;;
2896;SDS011;1458;49.728;9.228;2023-03-25T07:12:23;0.40;;;0.40;;
2896;SDS011;1458;49.728;9.228;2023-03-25T07:14:51;0.40;;;0.40;;
2896;SDS011;1458;49.728;9.228;2023-03-25T07:17:19;0.30;;;0.30;;
2896;SDS011;1458;49.728;9.228;2023-03-25T07:19:47;0.40;;;0.40;;
2896;SDS011;1458;49.728;9.228;2023-03-25T07:22:15;0.30;;;0.30;;
2896;SDS011;1458;49.728;9.228;2023-03-25T07:24:43;0.40;;;0.40;;
2896;SDS011;1458;49.728;9.228;2023-03-25T07:27:12;0.40;;;0.40;;
2896;SDS011;1458;49.728;9.228;2023-03-25T07:29:47;0.40;;;0.40;;
2896;SDS011;1458;49.728;9.228;2023-03-25T07:32:15;0.37;;;0.37;;
2896;SDS011;1458;49.728;9.228;2023-03-25T07:34:42;0.30;;;0.30;;
2896;SDS011;1458;49.728;9.228;2023-03-25T07:37:10;0.40;;;0.40;;
2896;SDS011;1458;49.728;9.228;2023-03-25T07:39:37;0.30;;;0.30;;
2896;SDS011;1458;49.728;9.228;2023-03-25T07:42:05;0.30;;;0.30;;
2896;SDS011;1458;49.728;9.228;2023-03-25T07:45:07;0.30;;;0.30;;
2896;SDS011;1458;49.728;9.228;2023-03-25T07:47:37;0.30;;;0.30;;
2896;SDS011;1458;49.728;9.228;2023-03-25T07:50:05;0.40;;;0.40;;
2896;SDS011;1458;49.728;9.228;2023-03-25T07:52:34;0.30;;;0.30;;
2896;SDS011;1458;49.728;9.228;2023-03-25T07:55:01;0.30;;;0.30;;
2896;SDS011;1458;49.728;9.228;2023-03-25T07:57:29;0.30;;;0.30;;
2896;SDS011;1458;49.728;9.228;2023-03-25T07:59:57;0.30;;;0.30;;
2896;SDS011;1458;49.728;9.228;2023-03-25T08:02:26;0.40;;;0.40;;
2896;SDS011;1458;49.728;9.228;2023-03-25T08:04:54;0.40;;;0.40;;
2896;SDS011;1458;49.728;9.228;2023-03-25T08:07:21;0.40;;;0.40;;
2896;SDS011;1458;49.728;9.228;2023-03-25T08:09:49;0.40;;;0.40;;
2896;SDS011;1458;49.728;9.228;2023-03-25T08:12:16;0.40;;;0.40;;
2896;SDS011;1458;49.728;9.228;2023-03-25T08:14:44;0.40;;;0.40;;
2896;SDS011;1458;49.728;9.228;2023-03-25T08:17:11;0.40;;;0.40;;
2896;SDS011;1458;49.728;9.228;2023-03-25T08:19:40;0.50;;;0.50;;
2896;SDS011;1458;49.728;9.228;2023-03-25T08:22:07;0.50;;;0.50;;
2896;SDS011;1458;49.728;9.228;2023-03-25T08:24:35;0.60;;;0.60;;
2896;SDS011;1458;49.728;9.228;2023-03-25T08:27:02;0.60;;;0.60;;
2896;SDS011;1458;49.728;9.228;2023-03-25T08:29:30;0.60;;;0.60;;
2896;SDS011;1458;49.728;9.228;2023-03-25T08:31:59;0.60;;;0.60;;
2896;SDS011;1458;49.728;9.228;2023-03-25T08:34:27;0.60;;;0.60;;
2896;SDS011;1458;49.728;9.228;2023-03-25T08:37:02;0.60;;;0.60;;
2896;SDS011;1458;49.728;9.228;2023-03-25T08:39:32;0.60;;;0.60;;
2896;SDS011;1458;49.728;9.228;2023-03-25T08:42:04;0.73;;;0.73;;
2896;SDS011;1458;49.728;9.228;2023-03-25T08:44:34;0.70;;;0.70;;
2896;SDS011;1458;49.728;9.228;2023-03-25T08:47:02;0.60;;;0.60;;
2896;SDS011;1458;49.728;9.228;2023-03-25T08:49:30;1.00;;;1.00;;
2896;SDS011;1458;49.728;9.228;2023-03-25T08:52:00;0.90;;;0.90;;
2896;SDS011;1458;49.728;9.228;2023-03-25T08:54:32;0.90;;;0.90;;
2896;SDS011;1458;49.728;9.228;2023-03-25T08:57:00;1.10;;;1.10;;
2896;SDS011;1458;49.728;9.228;2023-03-25T08:59:27;1.10;;;1.10;;
2896;SDS011;1458;49.728;9.228;2023-03-25T09:01:55;0.80;;;0.80;;
2896;SDS011;1458;49.728;9.228;2023-03-25T09:04:22;0.97;;;0.97;;
2896;SDS011;1458;49.728;9.228;2023-03-25T09:06:50;0.80;;;0.80;;
2896;SDS011;1458;49.728;9.228;2023-03-25T09:09:18;0.80;;;0.80;;
2896;SDS011;1458;49.728;9.228;2023-03-25T09:11:47;0.90;;;0.90;;
2896;SDS011;1458;49.728;9.228;2023-03-25T09:14:15;1.03;;;1.03;;
2896;SDS011;1458;49.728;9.228;2023-03-25T09:16:42;0.70;;;0.70;;
2896;SDS011;1458;49.728;9.228;2023-03-25T09:19:10;0.90;;;0.90;;
2896;SDS011;1458;49.728;9.228;2023-03-25T09:21:37;1.10;;;1.10;;
2896;SDS011;1458;49.728;9.228;2023-03-25T09:24:06;0.90;;;0.90;;
2896;SDS011;1458;49.728;9.228;2023-03-25T09:26:36;1.10;;;1.10;;
2896;SDS011;1458;49.728;9.228;2023-03-25T09:29:04;1.10;;;1.10;;
2896;SDS011;1458;49.728;9.228;2023-03-25T09:31:32;1.30;;;1.30;;
2896;SDS011;1458;49.728;9.228;2023-03-25T09:34:00;0.90;;;0.90;;
2896;SDS011;1458;49.728;9.228;2023-03-25T09:36:28;1.00;;;1.00;;
2896;SDS011;1458;49.728;9.228;2023-03-25T09:38:56;0.67;;;0.67;;
2896;SDS011;1458;49.728;9.228;2023-03-25T09:41:33;0.70;;;0.70;;
2896;SDS011;1458;49.728;9.228;2023-03-25T09:44:26;0.80;;;0.80;;
2896;SDS011;1458;49.728;9.228;2023-03-25T09:46:58;0.63;;;0.63;;
2896;SDS011;1458;49.728;9.228;2023-03-25T09:49:32;0.60;;;0.60;;
2896;SDS011;1458;49.728;9.228;2023-03-25T09:52:04;0.47;;;0.47;;
2896;SDS011;1458;49.728;9.228;2023-03-25T09:54:42;0.40;;;0.40;;
2896;SDS011;1458;49.728;9.228;2023-03-25T09:57:17;0.40;;;0.40;;
2896;SDS011;1458;49.728;9.228;2023-03-25T09:59:52;0.30;;;0.30;;
2896;SDS011;1458;49.728;9.228;2023-03-25T10:02:27;0.30;;;0.30;;
2896;SDS011;1458;49.728;9.228;2023-03-25T10:05:14;0.40;;;0.40;;
2896;SDS011;1458;49.728;9.228;2023-03-25T10:08:03;0.30;;;0.30;;
2896;SDS011;1458;49.728;9.228;2023-03-25T10:10:42;0.30;;;0.30;;
2896;SDS011;1458;49.728;9.228;2023-03-25T10:13:19;0.30;;;0.30;;
2896;SDS011;1458;49.728;9.228;2023-03-25T10:15:53;0.33;;;0.33;;
2896;SDS011;1458;49.728;9.228;2023-03-25T10:18:39;0.30;;;0.30;;
2896;SDS011;1458;49.728;9.228;2023-03-25T10:21:20;0.33;;;0.33;;
2896;SDS011;1458;49.728;9.228;2023-03-25T10:23:54;0.30;;;0.30;;
2896;SDS011;1458;49.728;9.228;2023-03-25T10:26:33;0.30;;;0.30;;
2896;SDS011;1458;49.728;9.228;2023-03-25T10:29:09;0.30;;;0.30;;
2896;SDS011;1458;49.728;9.228;2023-03-25T10:31:42;0.40;;;0.40;;
2896;SDS011;1458;49.728;9.228;2023-03-25T10:34:17;0.40;;;0.40;;
2896;SDS011;1458;49.728;9.228;2023-03-25T10:36:50;0.40;;;0.40;;
2896;SDS011;1458;49.728;9.228;2023-03-25T10:39:30;0.40;;;0.40;;
2896;SDS011;1458;49.728;9.228;2023-03-25T10:42:03;0.50;;;0.50;;
2896;SDS011;1458;49.728;9.228;2023-03-25T10:44:45;0.60;;;0.60;;
2896;SDS011;1458;49.728;9.228;2023-03-25T10:47:13;0.50;;;0.50;;
2896;SDS011;1458;49.728;9.228;2023-03-25T10:49:46;0.50;;;0.50;;
2896;SDS011;1458;49.728;9.228;2023-03-25T10:52:15;0.50;;;0.50;;
2896;SDS011;1458;49.728;9.228;2023-03-25T10:54:44;0.60;;;0.60;;
2896;SDS011;1458;49.728;9.228;2023-03-25T10:57:17;0.70;;;0.70;;
2896;SDS011;1458;49.728;9.228;2023-03-25T10:59:54;0.70;;;0.70;;
2896;SDS011;1458;49.728;9.228;2023-03-25T11:02:32;0.60;;;0.60;;
2896;SDS011;1458;49.728;9.228;2023-03-25T11:05:00;0.70;;;0.70;;
2896;SDS011;1458;49.728;9.228;2023-03-25T11:07:31;1.10;;;1.10;;
2896;SDS011;1458;49.728;9.228;2023-03-25T11:10:09;1.60;;;1.60;;
2896;SDS011;1458;49.728;9.228;2023-03-25T11:12:42;1.73;;;1.73;;
2896;SDS011;1458;49.728;9.228;2023-03-25T11:15:14;1.90;;;1.90;;
2896;SDS011;1458;49.728;9.228;2023-03-25T11:17:45;2.13;;;2.13;;
2896;SDS011;1458;49.728;9.228;2023-03-25T11:20:16;2.00;;;2.00;;
2896;SDS011;1458;49.728;9.228;2023-03-25T11:22:47;2.10;;;2.10;;
2896;SDS011;1458;49.728;9.228;2023-03-25T11:25:18;2.10;;;2.10;;
2896;SDS011;1458;49.728;9.228;2023-03-25T11:27:51;2.00;;;2.00;;
2896;SDS011;1458;49.728;9.228;2023-03-25T11:30:24;2.20;;;2.20;;
2896;SDS011;1458;49.728;9.228;2023-03-25T11:32:55;2.00;;;2.00;;
2896;SDS011;1458;49.728;9.228;2023-03-25T11:35:27;2.00;;;2.00;;
2896;SDS011;1458;49.728;9.228;2023-03-25T11:37:58;1.90;;;1.90;;
2896;SDS011;1458;49.728;9.228;2023-03-25T11:40:27;1.70;;;1.70;;
2896;SDS011;1458;49.728;9.228;2023-03-25T11:42:57;2.00;;;2.00;;
2896;SDS011;1458;49.728;9.228;2023-03-25T11:45:31;1.60;;;1.60;;
2896;SDS011;1458;49.728;9.228;2023-03-25T11:48:10;1.10;;;1.10;;
2896;SDS011;1458;49.728;9.228;2023-03-25T11:50:43;0.70;;;0.70;;
2896;SDS011;1458;49.728;9.228;2023-03-25T11:53:17;0.63;;;0.63;;
2896;SDS011;1458;49.728;9.228;2023-03-25T11:55:46;0.50;;;0.50;;
2896;SDS011;1458;49.728;9.228;2023-03-25T11:58:19;0.40;;;0.40;;
2896;SDS011;1458;49.728;9.228;2023-03-25T12:00:59;0.40;;;0.40;;
2896;SDS011;1458;49.728;9.228;2023-03-25T12:03:30;0.30;;;0.30;;
2896;SDS011;1458;49.728;9.228;2023-03-25T12:06:00;0.30;;;0.30;;
2896;SDS011;1458;49.728;9.228;2023-03-25T12:08:39;0.40;;;0.40;;
2896;SDS011;1458;49.728;9.228;2023-03-25T12:11:10;0.30;;;0.30;;
2896;SDS011;1458;49.728;9.228;2023-03-25T12:13:51;0.30;;;0.30;;
2896;SDS011;1458;49.728;9.228;2023-03-25T12:16:49;0.30;;;0.30;;
2896;SDS011;1458;49.728;9.228;2023-03-25T12:19:28;0.40;;;0.40;;
2896;SDS011;1458;49.728;9.228;2023-03-25T12:22:08;0.40;;;0.40;;
2896;SDS011;1458;49.728;9.228;2023-03-25T12:24:50;0.30;;;0.30;;
2896;SDS011;1458;49.728;9.228;2023-03-25T12:27:37;0.40;;;0.40;;
2896;SDS011;1458;49.728;9.228;2023-03-25T12:30:22;0.30;;;0.30;;
2896;SDS011;1458;49.728;9.228;2023-03-25T12:33:11;0.30;;;0.30;;
2896;SDS011;1458;49.728;9.228;2023-03-25T12:35:59;0.40;;;0.40;;
2896;SDS011;1458;49.728;9.228;2023-03-25T12:38:42;0.60;;;0.60;;
2896;SDS011;1458;49.728;9.228;2023-03-25T12:41:23;0.50;;;0.50;;
2896;SDS011;1458;49.728;9.228;2023-03-25T12:44:02;0.60;;;0.60;;
2896;SDS011;1458;49.728;9.228;2023-03-25T12:46:40;0.50;;;0.50;;
2896;SDS011;1458;49.728;9.228;2023-03-25T12:49:44;0.60;;;0.60;;
2896;SDS011;1458;49.728;9.228;2023-03-25T12:52:42;0.70;;;0.70;;
2896;SDS011;1458;49.728;9.228;2023-03-25T12:55:27;0.60;;;0.60;;
2896;SDS011;1458;49.728;9.228;2023-03-25T12:58:17;0.70;;;0.70;;
2896;SDS011;1458;49.728;9.228;2023-03-25T13:00:59;0.90;;;0.90;;
2896;SDS011;1458;49.728;9.228;2023-03-25T13:03:38;1.10;;;1.10;;
2896;SDS011;1458;49.728;9.228;2023-03-25T13:06:25;0.80;;;0.80;;
2896;SDS011;1458;49.728;9.228;2023-03-25T13:08:57;1.20;;;1.20;;
2896;SDS011;1458;49.728;9.228;2023-03-25T13:11:30;1.60;;;1.60;;
2896;SDS011;1458;49.728;9.228;2023-03-25T13:14:06;2.00;;;2.00;;
2896;SDS011;1458;49.728;9.228;2023-03-25T13:16:39;2.57;;;2.57;;
2896;SDS011;1458;49.728;9.228;2023-03-25T13:19:10;3.30;;;3.30;;
2896;SDS011;1458;49.728;9.228;2023-03-25T13:21:44;3.30;;;3.30;;
2896;SDS011;1458;49.728;9.228;2023-03-25T13:24:17;3.70;;;3.70;;
2896;SDS011;1458;49.728;9.228;2023-03-25T13:26:49;4.70;;;4.70;;
2896;SDS011;1458;49.728;9.228;2023-03-25T13:29:22;4.13;;;4.13;;
2896;SDS011;1458;49.728;9.228;2023-03-25T13:31:55;5.10;;;5.10;;
2896;SDS011;1458;49.728;9.228;2023-03-25T13:34:27;4.70;;;4.70;;
2896;SDS011;1458;49.728;9.228;2023-03-25T13:37:03;5.30;;;5.30;;
2896;SDS011;1458;49.728;9.228;2023-03-25T13:39:43;6.50;;;6.50;;
2896;SDS011;1458;49.728;9.228;2023-03-25T13:42:21;6.70;;;6.60;;
2896;SDS011;1458;49.728;9.228;2023-03-25T13:44:56;7.10;;;7.00;;
2896;SDS011;1458;49.728;9.228;2023-03-25T13:47:28;7.90;;;7.80;;
2896;SDS011;1458;49.728;9.228;2023-03-25T13:49:59;7.67;;;7.57;;
2896;SDS011;1458;49.728;9.228;2023-03-25T13:52:34;7.77;;;7.67;;
2896;SDS011;1458;49.728;9.228;2023-03-25T13:55:07;7.80;;;7.70;;
2896;SDS011;1458;49.728;9.228;2023-03-25T13:57:44;7.10;;;7.00;;
2896;SDS011;1458;49.728;9.228;2023-03-25T14:00:45;6.40;;;6.40;;
2896;SDS011;1458;49.728;9.228;2023-03-25T14:03:55;6.20;;;6.20;;
2896;SDS011;1458;49.728;9.228;2023-03-25T14:10:20;7.33;;;7.23;;
2896;SDS011;1458;49.728;9.228;2023-03-25T14:13:03;7.30;;;7.20;;
2896;SDS011;1458;49.728;9.228;2023-03-25T14:15:34;7.03;;;6.93;;
2896;SDS011;1458;49.728;9.228;2023-03-25T14:18:04;6.80;;;6.70;;
2896;SDS011;1458;49.728;9.228;2023-03-25T14:20:41;7.10;;;7.00;;
2896;SDS011;1458;49.728;9.228;2023-03-25T14:23:12;6.90;;;6.80;;
2896;SDS011;1458;49.728;9.228;2023-03-25T14:25:45;7.37;;;7.27;;
2896;SDS011;1458;49.728;9.228;2023-03-25T14:28:18;8.03;;;7.93;;
2896;SDS011;1458;49.728;9.228;2023-03-25T14:31:08;7.70;;;7.60;;
2896;SDS011;1458;49.728;9.228;2023-03-25T14:39:57;8.90;;;8.70;;
2896;SDS011;1458;49.728;9.228;2023-03-25T14:42:39;8.60;;;8.50;;
2896;SDS011;1458;49.728;9.228;2023-03-25T14:48:24;9.60;;;9.40;;
2896;SDS011;1458;49.728;9.228;2023-03-25T14:51:08;8.50;;;8.40;;
2896;SDS011;1458;49.728;9.228;2023-03-25T14:53:48;9.57;;;9.37;;
2896;SDS011;1458;49.728;9.228;2023-03-25T14:56:20;9.43;;;9.23;;
2896;SDS011;1458;49.728;9.228;2023-03-25T14:58:51;9.63;;;9.43;;
2896;SDS011;1458;49.728;9.228;2023-03-25T15:01:24;9.23;;;9.03;;
2896;SDS011;1458;49.728;9.228;2023-03-25T15:04:07;9.60;;;9.40;;
2896;SDS011;1458;49.728;9.228;2023-03-25T15:06:41;9.60;;;9.40;;
2896;SDS011;1458;49.728;9.228;2023-03-25T15:09:10;10.00;;;9.80;;
2896;SDS011;1458;49.728;9.228;2023-03-25T15:11:41;10.40;;;10.20;;
2896;SDS011;1458;49.728;9.228;2023-03-25T15:14:18;9.93;;;9.73;;
2896;SDS011;1458;49.728;9.228;2023-03-25T15:16:55;10.63;;;10.43;;
2896;SDS011;1458;49.728;9.228;2023-03-25T15:19:26;10.87;;;10.57;;
2896;SDS011;1458;49.728;9.228;2023-03-25T15:22:04;11.27;;;10.97;;
2896;SDS011;1458;49.728;9.228;2023-03-25T15:24:47;11.07;;;10.77;;
2896;SDS011;1458;49.728;9.228;2023-03-25T15:27:29;10.40;;;10.20;;
2896;SDS011;1458;49.728;9.228;2023-03-25T15:30:22;10.40;;;10.20;;
2896;SDS011;1458;49.728;9.228;2023-03-25T15:33:30;10.90;;;10.60;;
2896;SDS011;1458;49.728;9.228;2023-03-25T15:36:22;10.90;;;10.60;;
2896;SDS011;1458;49.728;9.228;2023-03-25T15:39:32;11.57;;;11.27;;
2896;SDS011;1458;49.728;9.228;2023-03-25T15:42:31;11.60;;;11.30;;
2896;SDS011;1458;49.728;9.228;2023-03-25T15:45:24;10.53;;;10.33;;
2896;SDS011;1458;49.728;9.228;2023-03-25T15:51:29;11.00;;;10.70;;
2896;SDS011;1458;49.728;9.228;2023-03-25T15:54:17;11.40;;;11.10;;
2896;SDS011;1458;49.728;9.228;2023-03-25T15:56:58;11.70;;;11.40;;
2896;SDS011;1458;49.728;9.228;2023-03-25T15:59:37;11.80;;;11.50;;
2896;SDS011;1458;49.728;9.228;2023-03-25T16:02:16;11.90;;;11.60;;
2896;SDS011;1458;49.728;9.228;2023-03-25T16:04:52;11.80;;;11.50;;
2896;SDS011;1458;49.728;9.228;2023-03-25T16:07:21;12.00;;;11.70;;
2896;SDS011;1458;49.728;9.228;2023-03-25T16:09:54;11.90;;;11.60;;
2896;SDS011;1458;49.728;9.228;2023-03-25T16:12:23;11.90;;;11.60;;
2896;SDS011;1458;49.728;9.228;2023-03-25T16:14:52;12.00;;;11.70;;
2896;SDS011;1458;49.728;9.228;2023-03-25T16:17:21;12.30;;;12.00;;
2896;SDS011;1458;49.728;9.228;2023-03-25T16:19:58;12.40;;;12.00;;
2896;SDS011;1458;49.728;9.228;2023-03-25T16:22:30;12.27;;;11.90;;